createdAt,value
2018-03-21T00:00:48.067Z,-1.68
2018-03-21T00:03:52.121Z,-1.92
2018-03-21T00:06:55.398Z,-1.93
2018-03-21T00:09:58.690Z,-2.02
2018-03-21T00:13:01.961Z,-1.93
2018-03-21T00:16:06.176Z,-1.75
2018-03-21T00:19:10.378Z,-1.87
2018-03-21T00:22:13.647Z,-1.87
2018-03-21T00:25:16.955Z,-1.82
2018-03-21T00:28:20.226Z,-1.86
2018-03-21T00:31:23.512Z,-1.96
2018-03-21T00:34:26.808Z,-1.89
2018-03-21T00:37:30.077Z,-1.80
2018-03-21T00:40:34.147Z,-1.93
2018-03-21T00:43:37.640Z,-1.78
2018-03-21T00:46:40.929Z,-2.04
2018-03-21T00:49:44.229Z,-1.90
2018-03-21T00:52:47.518Z,-1.95
2018-03-21T00:55:50.812Z,-1.78
2018-03-21T00:58:54.112Z,-1.89
2018-03-21T01:01:57.418Z,-1.95
2018-03-21T01:05:00.699Z,-1.95
2018-03-21T01:08:04.002Z,-1.98
2018-03-21T01:11:07.291Z,-1.93
2018-03-21T01:14:10.611Z,-2.00
2018-03-21T01:17:13.866Z,-1.80
2018-03-21T01:20:18.009Z,-1.99
2018-03-21T01:23:21.273Z,-1.91
2018-03-21T01:26:24.570Z,-2.00
2018-03-21T01:29:28.689Z,-1.79
2018-03-21T01:32:32.733Z,-1.85
2018-03-21T01:35:36.043Z,-1.81
2018-03-21T01:38:40.354Z,-1.74
2018-03-21T01:41:43.636Z,-1.70
2018-03-21T01:44:47.681Z,-1.65
2018-03-21T01:47:50.978Z,-1.63
2018-03-21T01:50:54.367Z,-1.98
2018-03-21T01:53:57.660Z,-1.87
2018-03-21T01:57:01.033Z,-1.86
2018-03-21T02:00:05.799Z,-1.87
2018-03-21T02:03:09.900Z,-1.83
2018-03-21T02:06:13.944Z,-1.79
2018-03-21T02:09:17.214Z,-1.90
2018-03-21T02:12:20.509Z,-1.92
2018-03-21T02:15:24.560Z,-2.13
2018-03-21T02:18:27.989Z,-2.07
2018-03-21T02:21:31.438Z,-1.97
2018-03-21T02:24:34.744Z,-2.01
2018-03-21T02:27:38.033Z,-1.91
2018-03-21T02:30:41.330Z,-1.78
2018-03-21T02:33:44.623Z,-1.91
2018-03-21T02:36:48.033Z,-1.70
2018-03-21T02:39:51.379Z,-1.63
2018-03-21T02:42:55.744Z,-1.76
2018-03-21T02:46:00.028Z,-1.90
2018-03-21T02:49:03.302Z,-1.84
2018-03-21T02:52:06.578Z,-1.82
2018-03-21T02:55:09.870Z,-1.94
2018-03-21T02:58:13.133Z,-2.01
2018-03-21T03:01:16.578Z,-1.91
2018-03-21T03:04:20.152Z,-2.01
2018-03-21T03:07:23.438Z,-1.88
2018-03-21T03:10:26.750Z,-1.87
2018-03-21T03:13:30.026Z,-1.88
2018-03-21T03:16:33.377Z,-1.74
2018-03-21T03:19:36.666Z,-1.69
2018-03-21T03:22:39.955Z,-1.55
2018-03-21T03:25:43.361Z,-1.50
2018-03-21T03:28:46.639Z,-1.65
2018-03-21T03:31:50.690Z,-1.50
2018-03-21T03:34:53.971Z,-1.62
2018-03-21T03:38:12.167Z,-1.78
2018-03-21T03:41:16.438Z,-1.79
2018-03-21T03:44:19.732Z,-1.70
2018-03-21T03:47:23.020Z,-1.67
2018-03-21T03:50:26.317Z,-1.65
2018-03-21T03:53:30.614Z,-1.64
2018-03-21T03:56:34.677Z,-1.71
2018-03-21T03:59:37.949Z,-1.71
2018-03-21T04:02:41.243Z,-1.51
2018-03-21T04:05:45.280Z,-1.49
2018-03-21T04:08:48.555Z,-1.34
2018-03-21T04:11:52.597Z,-1.27
2018-03-21T04:14:55.992Z,-1.23
2018-03-21T04:17:59.266Z,-1.25
2018-03-21T04:21:05.553Z,-1.34
2018-03-21T04:24:08.820Z,-1.32
2018-03-21T04:27:12.865Z,-1.38
2018-03-21T04:30:16.197Z,-1.45
2018-03-21T04:33:19.482Z,-1.49
2018-03-21T04:36:22.770Z,-1.48
2018-03-21T04:39:26.761Z,-1.44
2018-03-21T04:42:30.047Z,-1.50
2018-03-21T04:45:34.111Z,-1.63
2018-03-21T04:48:37.384Z,-1.58
2018-03-21T04:51:42.694Z,-1.63
2018-03-21T04:54:46.074Z,-1.56
2018-03-21T04:57:49.377Z,-1.56
2018-03-21T05:00:53.469Z,-1.54
2018-03-21T05:03:56.755Z,-1.62
2018-03-21T05:07:00.244Z,-1.61
2018-03-21T05:10:04.053Z,-1.68
2018-03-21T05:13:07.358Z,-1.73
2018-03-21T05:16:10.658Z,-1.78
2018-03-21T05:19:13.930Z,-1.82
2018-03-21T05:22:17.987Z,-1.84
2018-03-21T05:25:21.345Z,-1.80
2018-03-21T05:28:25.894Z,-1.84
2018-03-21T05:31:30.755Z,-1.87
2018-03-21T05:34:34.119Z,-1.86
2018-03-21T05:37:38.197Z,-1.88
2018-03-21T05:40:41.481Z,-1.90
2018-03-21T05:43:44.795Z,-1.91
2018-03-21T05:46:48.149Z,-1.91
2018-03-21T05:49:52.218Z,-1.91
2018-03-21T05:52:56.574Z,-1.86
2018-03-21T05:55:59.870Z,-1.88
2018-03-21T05:59:03.310Z,-1.88
2018-03-21T06:02:06.617Z,-1.90
2018-03-21T06:05:09.888Z,-1.88
2018-03-21T06:08:13.181Z,-1.84
2018-03-21T06:11:16.498Z,-1.80
2018-03-21T06:14:19.870Z,-1.84
2018-03-21T06:17:23.992Z,-1.74
2018-03-21T06:20:27.281Z,-1.84
2018-03-21T06:23:31.362Z,-1.92
2018-03-21T06:26:34.804Z,-1.96
2018-03-21T06:29:38.099Z,-1.88
2018-03-21T06:32:41.462Z,-1.94
2018-03-21T06:35:44.758Z,-1.95
2018-03-21T06:38:48.033Z,-1.83
2018-03-21T06:41:51.345Z,-1.93
2018-03-21T06:44:54.632Z,-2.00
2018-03-21T06:47:58.392Z,-2.01
2018-03-21T06:51:02.437Z,-1.95
2018-03-21T06:54:05.738Z,-1.93
2018-03-21T06:57:09.030Z,-2.03
2018-03-21T07:00:12.403Z,-1.99
2018-03-21T07:03:15.692Z,-2.00
2018-03-21T07:06:19.997Z,-1.95
2018-03-21T07:09:24.051Z,-1.86
2018-03-21T07:12:27.345Z,-1.74
2018-03-21T07:15:48.633Z,-1.68
2018-03-21T07:18:52.682Z,-1.88
2018-03-21T07:21:56.113Z,-1.88
2018-03-21T07:24:59.405Z,-1.79
2018-03-21T07:28:02.894Z,-1.90
2018-03-21T07:31:06.295Z,-1.64
2018-03-21T07:34:09.664Z,-1.79
2018-03-21T07:37:12.978Z,-1.87
2018-03-21T07:40:16.268Z,-1.87
2018-03-21T07:43:19.546Z,-1.89
2018-03-21T07:46:22.973Z,-1.67
2018-03-21T07:49:28.398Z,-1.58
2018-03-21T07:52:32.447Z,-0.92
2018-03-21T07:55:35.733Z,-0.84
2018-03-21T07:58:39.007Z,-0.59
2018-03-21T08:01:43.050Z,-0.16
2018-03-21T08:04:46.330Z,0.09
2018-03-21T08:07:49.618Z,0.42
2018-03-21T08:10:53.694Z,-0.75
2018-03-21T08:13:56.974Z,-0.67
2018-03-21T08:17:00.276Z,-0.64
2018-03-21T08:20:03.582Z,-1.10
2018-03-21T08:23:06.953Z,-1.16
2018-03-21T08:26:10.234Z,-1.10
2018-03-21T08:29:13.521Z,-1.37
2018-03-21T08:32:17.818Z,-1.51
2018-03-21T08:35:21.881Z,-1.28
2018-03-21T08:38:25.173Z,-1.27
2018-03-21T08:41:28.440Z,-1.13
2018-03-21T08:44:31.779Z,-0.47
2018-03-21T08:47:35.067Z,0.34
2018-03-21T08:50:38.328Z,0.45
2018-03-21T08:53:42.373Z,1.09
2018-03-21T08:56:45.963Z,0.65
2018-03-21T08:59:49.229Z,0.12
2018-03-21T09:02:52.499Z,0.89
2018-03-21T09:05:55.758Z,1.35
2018-03-21T09:08:59.796Z,1.22
2018-03-21T09:12:03.060Z,1.79
2018-03-21T09:15:07.103Z,1.51
2018-03-21T09:18:10.400Z,1.24
2018-03-21T09:21:13.661Z,1.50
2018-03-21T09:24:17.290Z,1.12
2018-03-21T09:27:21.334Z,1.24
2018-03-21T09:30:24.598Z,1.64
2018-03-21T09:33:28.632Z,0.95
2018-03-21T09:36:32.131Z,2.13
2018-03-21T09:39:35.402Z,2.59
2018-03-21T09:42:39.458Z,2.76
2018-03-21T09:45:42.717Z,1.81
2018-03-21T09:48:46.790Z,1.46
2018-03-21T09:51:50.379Z,1.80
2018-03-21T09:54:53.751Z,1.50
2018-03-21T09:57:57.027Z,1.49
2018-03-21T10:01:01.085Z,1.81
2018-03-21T10:04:04.342Z,1.76
2018-03-21T10:07:08.380Z,2.68
2018-03-21T10:10:11.658Z,2.45
2018-03-21T10:13:15.716Z,2.52
2018-03-21T10:16:18.980Z,2.72
2018-03-21T10:19:23.024Z,2.24
2018-03-21T10:22:26.384Z,2.55
2018-03-21T10:25:30.412Z,2.54
2018-03-21T10:28:34.552Z,3.01
2018-03-21T10:31:37.827Z,0.79
2018-03-21T10:34:41.107Z,0.09
2018-03-21T10:37:45.266Z,0.23
2018-03-21T10:40:48.525Z,0.64
2018-03-21T10:43:52.706Z,1.10
2018-03-21T10:46:55.996Z,0.65
2018-03-21T10:49:59.294Z,0.77
2018-03-21T10:53:02.579Z,1.21
2018-03-21T10:56:05.878Z,1.09
2018-03-21T10:59:09.203Z,1.40
2018-03-21T11:02:14.224Z,1.59
2018-03-21T11:05:22.221Z,1.51
2018-03-21T11:08:25.487Z,0.95
2018-03-21T11:11:28.766Z,0.75
2018-03-21T11:14:32.029Z,0.38
2018-03-21T11:17:35.409Z,0.59
2018-03-21T11:20:38.668Z,1.04
2018-03-21T11:23:42.722Z,0.96
2018-03-21T11:26:46.101Z,1.19
2018-03-21T11:29:49.904Z,1.34
2018-03-21T11:32:53.214Z,1.33
2018-03-21T11:35:56.492Z,1.25
2018-03-21T11:39:00.580Z,0.99
2018-03-21T11:42:03.842Z,1.57
2018-03-21T11:45:07.132Z,1.69
2018-03-21T11:48:10.506Z,1.65
2018-03-21T11:51:14.845Z,1.36
2018-03-21T11:54:18.072Z,1.75
2018-03-21T11:57:21.429Z,1.48
2018-03-21T12:00:24.709Z,1.81
2018-03-21T12:03:28.745Z,1.53
2018-03-21T12:06:32.001Z,1.50
2018-03-21T12:09:36.782Z,1.55
2018-03-21T12:12:40.080Z,1.29
2018-03-21T12:15:43.460Z,1.73
2018-03-21T12:18:47.497Z,2.51
2018-03-21T12:21:50.803Z,3.27
2018-03-21T12:24:54.102Z,3.54
2018-03-21T12:27:57.378Z,4.35
2018-03-21T12:31:00.676Z,2.63
2018-03-21T12:34:03.935Z,2.39
2018-03-21T12:37:07.896Z,2.31
2018-03-21T12:40:11.166Z,3.25
2018-03-21T12:43:15.225Z,2.93
2018-03-21T12:46:18.526Z,4.25
2018-03-21T12:49:21.816Z,3.98
2018-03-21T12:52:25.078Z,2.65
2018-03-21T12:55:29.106Z,2.47
2018-03-21T12:58:32.396Z,2.65
2018-03-21T13:01:35.668Z,1.89
2018-03-21T13:04:38.934Z,2.28
2018-03-21T13:07:42.321Z,2.28
2018-03-21T13:10:45.617Z,2.05
2018-03-21T13:13:48.896Z,2.16
2018-03-21T13:16:52.712Z,2.13
2018-03-21T13:20:11.568Z,2.30
2018-03-21T13:23:17.610Z,2.10
2018-03-21T13:26:21.778Z,2.23
2018-03-21T13:29:25.120Z,2.03
2018-03-21T13:32:28.519Z,1.42
2018-03-21T13:35:31.840Z,1.75
2018-03-21T13:38:35.088Z,2.16
2018-03-21T13:41:38.365Z,2.33
2018-03-21T13:44:41.645Z,2.69
2018-03-21T13:47:45.672Z,2.76
2018-03-21T13:50:49.735Z,2.61
2018-03-21T13:53:53.032Z,2.12
2018-03-21T13:56:56.294Z,2.50
2018-03-21T13:59:59.895Z,2.23
2018-03-21T14:03:03.193Z,2.01
2018-03-21T14:06:07.293Z,2.08
2018-03-21T14:09:10.582Z,1.95
2018-03-21T14:12:13.950Z,1.57
2018-03-21T14:15:17.241Z,1.81
2018-03-21T14:18:20.538Z,1.70
2018-03-21T14:21:23.921Z,1.85
2018-03-21T14:24:27.212Z,1.71
2018-03-21T14:27:31.598Z,1.64
2018-03-21T14:30:34.864Z,1.62
2018-03-21T14:33:38.437Z,1.40
2018-03-21T14:36:42.860Z,1.43
2018-03-21T14:39:46.880Z,1.84
2018-03-21T14:42:53.027Z,2.01
2018-03-21T14:45:56.347Z,2.01
2018-03-21T14:48:59.633Z,1.77
2018-03-21T14:52:02.931Z,1.74
2018-03-21T14:55:07.018Z,1.90
2018-03-21T14:58:10.281Z,1.91
2018-03-21T15:01:13.552Z,1.58
2018-03-21T15:04:17.621Z,2.22
2018-03-21T15:07:21.236Z,2.10
2018-03-21T15:10:24.554Z,2.61
2018-03-21T15:13:28.813Z,2.54
2018-03-21T15:16:32.225Z,2.62
2018-03-21T15:19:35.773Z,2.46
2018-03-21T15:22:39.029Z,2.39
2018-03-21T15:25:42.312Z,2.22
2018-03-21T15:28:45.582Z,2.02
2018-03-21T15:31:49.633Z,2.09
2018-03-21T15:34:52.999Z,1.93
2018-03-21T15:37:56.338Z,1.19
2018-03-21T15:40:59.641Z,1.27
2018-03-21T15:44:02.910Z,1.48
2018-03-21T15:47:06.193Z,1.64
2018-03-21T15:50:10.540Z,1.62
2018-03-21T15:53:13.944Z,1.71
2018-03-21T15:56:17.218Z,1.21
2018-03-21T15:59:20.558Z,1.38
2018-03-21T16:02:42.716Z,1.43
2018-03-21T16:05:47.417Z,1.40
2018-03-21T16:08:51.559Z,1.25
2018-03-21T16:11:54.844Z,1.43
2018-03-21T16:14:58.239Z,1.43
2018-03-21T16:18:01.550Z,1.36
2018-03-21T16:21:04.825Z,1.37
2018-03-21T16:24:08.092Z,1.44
2018-03-21T16:27:11.397Z,1.36
2018-03-21T16:30:14.678Z,1.07
2018-03-21T16:33:17.965Z,1.00
2018-03-21T16:36:21.261Z,0.82
2018-03-21T16:39:25.491Z,0.80
2018-03-21T16:42:29.910Z,0.81
2018-03-21T16:45:34.037Z,0.83
2018-03-21T16:48:38.341Z,0.63
2018-03-21T16:51:42.419Z,0.54
2018-03-21T16:54:45.769Z,0.37
2018-03-21T16:57:49.072Z,0.30
2018-03-21T17:00:53.120Z,0.26
2018-03-21T17:03:56.413Z,0.23
2018-03-21T17:06:59.672Z,0.18
2018-03-21T17:10:04.197Z,0.19
2018-03-21T17:13:08.224Z,0.11
2018-03-21T17:16:11.509Z,0.05
2018-03-21T17:19:15.545Z,0.03
2018-03-21T17:22:18.829Z,-0.07
2018-03-21T17:25:22.139Z,-0.09
2018-03-21T17:28:25.444Z,-0.16
2018-03-21T17:31:28.734Z,-0.20
2018-03-21T17:34:32.024Z,-0.22
2018-03-21T17:37:35.310Z,-0.26
2018-03-21T17:40:39.392Z,-0.29
2018-03-21T17:43:42.706Z,-0.35
2018-03-21T17:46:46.482Z,-0.45
2018-03-21T17:49:50.071Z,-0.49
2018-03-21T17:52:53.458Z,-0.54
2018-03-21T17:55:56.746Z,-0.50
2018-03-21T17:59:00.043Z,-0.53
2018-03-21T18:02:03.335Z,-0.54
2018-03-21T18:05:07.363Z,-0.47
2018-03-21T18:08:11.065Z,-0.56
2018-03-21T18:11:15.103Z,-0.54
2018-03-21T18:14:18.378Z,-0.59
2018-03-21T18:17:22.445Z,-0.69
2018-03-21T18:20:25.884Z,-0.71
2018-03-21T18:23:29.161Z,-0.73
2018-03-21T18:26:32.640Z,-0.75
2018-03-21T18:29:37.561Z,-0.77
2018-03-21T18:32:41.346Z,-0.79
2018-03-21T18:35:45.535Z,-0.85
2018-03-21T18:38:51.509Z,-1.06
2018-03-21T18:41:55.706Z,-0.96
2018-03-21T18:44:59.027Z,-1.03
2018-03-21T18:48:02.694Z,-1.00
2018-03-21T18:51:06.772Z,-1.03
2018-03-21T18:54:10.818Z,-1.09
2018-03-21T18:57:14.260Z,-1.03
2018-03-21T19:00:18.419Z,-1.14
2018-03-21T19:03:21.697Z,-1.15
2018-03-21T19:06:25.827Z,-1.35
2018-03-21T19:09:29.916Z,-1.31
2018-03-21T19:12:33.208Z,-1.24
2018-03-21T19:15:36.527Z,-1.36
2018-03-21T19:18:40.568Z,-1.42
2018-03-21T19:21:44.132Z,-1.37
2018-03-21T19:24:47.408Z,-1.37
2018-03-21T19:27:50.708Z,-1.42
2018-03-21T19:30:53.990Z,-1.47
2018-03-21T19:33:57.644Z,-1.47
2018-03-21T19:37:02.021Z,-1.47
2018-03-21T19:40:05.457Z,-1.58
2018-03-21T19:43:08.827Z,-1.52
2018-03-21T19:46:12.194Z,-1.60
2018-03-21T19:49:15.561Z,-1.61
2018-03-21T19:52:18.930Z,-1.59
2018-03-21T19:55:22.489Z,-1.61
2018-03-21T19:58:25.778Z,-1.60
2018-03-21T20:01:29.111Z,-1.78
2018-03-21T20:04:32.409Z,-1.71
2018-03-21T20:07:36.381Z,-1.71
2018-03-21T20:10:58.100Z,-1.80
2018-03-21T20:14:04.852Z,-1.86
2018-03-21T20:17:08.363Z,-1.95
2018-03-21T20:20:11.671Z,-1.99
2018-03-21T20:23:15.063Z,-1.98
2018-03-21T20:26:19.103Z,-2.00
2018-03-21T20:29:22.383Z,-2.13
2018-03-21T20:32:25.767Z,-2.15
2018-03-21T20:35:29.038Z,-2.11
2018-03-21T20:38:33.079Z,-2.15
2018-03-21T20:41:36.426Z,-2.15
2018-03-21T20:44:39.827Z,-2.12
2018-03-21T20:47:44.022Z,-2.15
2018-03-21T20:50:48.727Z,-2.23
2018-03-21T20:53:52.020Z,-2.32
2018-03-21T20:56:56.540Z,-2.35
2018-03-21T21:00:02.447Z,-2.40
2018-03-21T21:03:05.765Z,-2.36
2018-03-21T21:06:09.052Z,-2.48
2018-03-21T21:09:12.330Z,-2.58
2018-03-21T21:12:15.723Z,-2.67
2018-03-21T21:15:19.135Z,-2.61
2018-03-21T21:18:22.525Z,-2.56
2018-03-21T21:21:26.622Z,-2.65
2018-03-21T21:24:30.669Z,-2.68
2018-03-21T21:27:34.056Z,-2.72
2018-03-21T21:30:37.510Z,-2.72
2018-03-21T21:33:42.473Z,-2.83
2018-03-21T21:36:55.215Z,-2.93
2018-03-21T21:39:59.341Z,-2.91
2018-03-21T21:43:02.662Z,-2.95
2018-03-21T21:46:05.961Z,-3.07
2018-03-21T21:49:09.247Z,-3.04
2018-03-21T21:52:13.252Z,-3.16
2018-03-21T21:55:18.193Z,-3.14
2018-03-21T21:58:23.346Z,-3.20
2018-03-21T22:01:28.561Z,-3.21
2018-03-21T22:04:33.313Z,-3.25
2018-03-21T22:07:37.022Z,-3.26
2018-03-21T22:10:40.331Z,-3.22
2018-03-21T22:13:44.630Z,-3.24
2018-03-21T22:16:48.665Z,-3.22
2018-03-21T22:19:51.941Z,-3.18
2018-03-21T22:22:56.237Z,-3.23
2018-03-21T22:25:59.523Z,-3.26
2018-03-21T22:29:02.893Z,-3.26
2018-03-21T22:32:06.165Z,-3.32
2018-03-21T22:35:10.293Z,-3.29
2018-03-21T22:38:13.867Z,-3.41
2018-03-21T22:41:17.460Z,-3.38
2018-03-21T22:44:20.751Z,-3.42
2018-03-21T22:47:24.794Z,-3.54
2018-03-21T22:50:28.828Z,-3.49
2018-03-21T22:53:32.395Z,-3.54
2018-03-21T22:56:35.664Z,-3.56
2018-03-21T22:59:38.942Z,-3.75
2018-03-21T23:03:00.430Z,-3.66
2018-03-21T23:06:05.152Z,-3.77
2018-03-21T23:09:08.422Z,-3.80
2018-03-21T23:12:11.776Z,-3.79
2018-03-21T23:15:15.077Z,-3.80
2018-03-21T23:18:18.349Z,-3.83
2018-03-21T23:21:22.489Z,-3.81
2018-03-21T23:24:25.789Z,-3.90
2018-03-21T23:27:29.851Z,-3.91
2018-03-21T23:30:33.371Z,-3.83
2018-03-21T23:33:36.647Z,-3.85
2018-03-21T23:36:39.930Z,-3.83
2018-03-21T23:39:43.240Z,-3.82
2018-03-21T23:42:46.603Z,-3.84
2018-03-21T23:45:49.890Z,-3.83
2018-03-21T23:48:53.928Z,-3.91
2018-03-21T23:51:57.369Z,-3.96
2018-03-21T23:55:00.658Z,-3.93
2018-03-21T23:58:03.926Z,-3.93
